Speed, Missouri
Current Conditions -  °F | °C
As of 4:55 AM on Friday 31 Oct 2014 (Local Time) from KVER Reporting Station
Overcast Overcast  
Wind Chill:   Ceiling: 3000
Heat Index:   Visibility: 10mi
Dew Point:   Wind: 16mph
Humidity: 68%   Direction: 340°NNW
Pressure: 30.22"   Gusts: 24mph
Location:  38.8814°N, 92.7602°W
Report Text: KVER 310955Z AUTO 34014G21KT 10SM BKN030 BKN055 OVC080 09/04 A3022 RMK AO2 T00940037
Loading
Personal Weather Stations






























Interactive Weather Map
Tropical Storm Tracking
New forecast layout! Learn more

10-Day Weather Forecast

Advertisements
Track Severe Weather on mobile